sensor_id;sensor_type;location;lat;lon;timestamp;pressure;altitude;pressure_sealevel;temperature;humidity
46412;BME280;32113;42.012;24.870;2023-05-18T00:01:08;98433.66;;;15.94;92.69
46412;BME280;32113;42.012;24.870;2023-05-18T00:03:34;98431.09;;;15.92;93.46
46412;BME280;32113;42.012;24.870;2023-05-18T00:06:00;98433.94;;;15.86;94.04
46412;BME280;32113;42.012;24.870;2023-05-18T00:08:35;98440.00;;;15.85;93.03
46412;BME280;32113;42.012;24.870;2023-05-18T00:11:00;98436.44;;;15.67;93.04
46412;BME280;32113;42.012;24.870;2023-05-18T00:13:26;98439.13;;;15.63;93.97
46412;BME280;32113;42.012;24.870;2023-05-18T00:15:51;98436.16;;;15.52;93.83
46412;BME280;32113;42.012;24.870;2023-05-18T00:18:16;98438.69;;;15.54;94.62
46412;BME280;32113;42.012;24.870;2023-05-18T00:20:42;98436.88;;;15.56;94.18
46412;BME280;32113;42.012;24.870;2023-05-18T00:23:07;98432.56;;;15.56;94.89
46412;BME280;32113;42.012;24.870;2023-05-18T00:25:34;98437.47;;;15.62;94.77
46412;BME280;32113;42.012;24.870;2023-05-18T00:27:59;98445.22;;;15.62;95.29
46412;BME280;32113;42.012;24.870;2023-05-18T00:30:25;98444.09;;;15.70;95.15
46412;BME280;32113;42.012;24.870;2023-05-18T00:32:50;98439.94;;;15.66;94.65
46412;BME280;32113;42.012;24.870;2023-05-18T00:35:15;98435.53;;;15.68;94.46
46412;BME280;32113;42.012;24.870;2023-05-18T00:37:40;98432.88;;;15.69;93.46
46412;BME280;32113;42.012;24.870;2023-05-18T00:40:06;98441.88;;;15.60;93.37
46412;BME280;32113;42.012;24.870;2023-05-18T00:42:31;98435.09;;;15.58;93.53
46412;BME280;32113;42.012;24.870;2023-05-18T00:44:57;98436.44;;;15.46;93.58
46412;BME280;32113;42.012;24.870;2023-05-18T00:47:22;98428.44;;;15.30;94.54
46412;BME280;32113;42.012;24.870;2023-05-18T00:49:47;98430.00;;;15.34;94.66
46412;BME280;32113;42.012;24.870;2023-05-18T00:52:12;98430.41;;;15.23;93.90
46412;BME280;32113;42.012;24.870;2023-05-18T00:54:39;98416.84;;;15.18;94.42
46412;BME280;32113;42.012;24.870;2023-05-18T00:57:04;98414.56;;;15.10;95.22
46412;BME280;32113;42.012;24.870;2023-05-18T00:59:30;98414.25;;;15.18;94.85
46412;BME280;32113;42.012;24.870;2023-05-18T01:01:56;98407.03;;;15.04;94.97
46412;BME280;32113;42.012;24.870;2023-05-18T01:04:22;98405.00;;;14.90;95.42
46412;BME280;32113;42.012;24.870;2023-05-18T01:06:48;98406.03;;;14.86;96.47
46412;BME280;32113;42.012;24.870;2023-05-18T01:09:14;98405.44;;;14.53;97.61
46412;BME280;32113;42.012;24.870;2023-05-18T01:11:59;98401.75;;;14.61;98.26
46412;BME280;32113;42.012;24.870;2023-05-18T01:17:03;98414.31;;;14.94;96.61
46412;BME280;32113;42.012;24.870;2023-05-18T01:22:36;98419.50;;;14.94;96.68
46412;BME280;32113;42.012;24.870;2023-05-18T01:27:44;98413.94;;;14.81;95.87
46412;BME280;32113;42.012;24.870;2023-05-18T01:30:12;98414.31;;;14.94;96.63
46412;BME280;32113;42.012;24.870;2023-05-18T01:32:38;98419.19;;;15.02;96.20
46412;BME280;32113;42.012;24.870;2023-05-18T01:35:04;98420.69;;;15.07;95.71
46412;BME280;32113;42.012;24.870;2023-05-18T01:37:30;98429.94;;;15.13;95.91
46412;BME280;32113;42.012;24.870;2023-05-18T01:39:55;98427.25;;;15.16;95.97
46412;BME280;32113;42.012;24.870;2023-05-18T01:42:22;98426.22;;;15.20;95.68
46412;BME280;32113;42.012;24.870;2023-05-18T01:44:50;98427.78;;;15.24;95.36
46412;BME280;32113;42.012;24.870;2023-05-18T01:47:17;98440.50;;;15.29;95.46
46412;BME280;32113;42.012;24.870;2023-05-18T01:52:22;98438.72;;;15.31;93.04
46412;BME280;32113;42.012;24.870;2023-05-18T01:54:49;98446.63;;;15.27;93.96
46412;BME280;32113;42.012;24.870;2023-05-18T01:57:16;98440.44;;;15.31;93.30
46412;BME280;32113;42.012;24.870;2023-05-18T01:59:42;98450.53;;;15.37;93.70
46412;BME280;32113;42.012;24.870;2023-05-18T02:02:08;98457.09;;;15.46;93.56
46412;BME280;32113;42.012;24.870;2023-05-18T02:04:35;98459.38;;;15.54;93.17
46412;BME280;32113;42.012;24.870;2023-05-18T02:07:01;98468.16;;;15.49;92.07
46412;BME280;32113;42.012;24.870;2023-05-18T02:09:26;98462.97;;;15.49;92.41
46412;BME280;32113;42.012;24.870;2023-05-18T02:11:51;98462.94;;;15.51;93.04
46412;BME280;32113;42.012;24.870;2023-05-18T02:14:17;98471.50;;;15.52;93.37
46412;BME280;32113;42.012;24.870;2023-05-18T02:16:42;98472.34;;;15.52;94.05
46412;BME280;32113;42.012;24.870;2023-05-18T02:19:11;98481.03;;;15.51;94.09
46412;BME280;32113;42.012;24.870;2023-05-18T02:21:36;98483.00;;;15.44;94.47
46412;BME280;32113;42.012;24.870;2023-05-18T02:24:02;98496.69;;;15.46;93.67
46412;BME280;32113;42.012;24.870;2023-05-18T02:26:27;98492.81;;;15.36;94.64
46412;BME280;32113;42.012;24.870;2023-05-18T02:28:52;98492.03;;;15.34;95.05
46412;BME280;32113;42.012;24.870;2023-05-18T02:31:18;98490.16;;;15.37;95.01
46412;BME280;32113;42.012;24.870;2023-05-18T02:33:43;98494.25;;;15.43;94.87
46412;BME280;32113;42.012;24.870;2023-05-18T02:36:09;98490.66;;;15.47;95.18
46412;BME280;32113;42.012;24.870;2023-05-18T02:38:36;98495.63;;;15.52;95.06
46412;BME280;32113;42.012;24.870;2023-05-18T02:41:02;98496.66;;;15.48;95.23
46412;BME280;32113;42.012;24.870;2023-05-18T02:43:27;98494.84;;;15.50;95.22
46412;BME280;32113;42.012;24.870;2023-05-18T02:45:53;98491.41;;;15.49;95.17
46412;BME280;32113;42.012;24.870;2023-05-18T02:48:18;98497.25;;;15.55;95.08
46412;BME280;32113;42.012;24.870;2023-05-18T02:50:44;98506.81;;;15.53;94.72
46412;BME280;32113;42.012;24.870;2023-05-18T02:53:10;98509.31;;;15.54;94.55
46412;BME280;32113;42.012;24.870;2023-05-18T02:55:36;98510.22;;;15.53;95.00
46412;BME280;32113;42.012;24.870;2023-05-18T02:58:02;98515.19;;;15.59;94.85
46412;BME280;32113;42.012;24.870;2023-05-18T03:00:27;98513.34;;;15.61;94.88
46412;BME280;32113;42.012;24.870;2023-05-18T03:02:54;98514.22;;;15.62;94.52
46412;BME280;32113;42.012;24.870;2023-05-18T03:05:22;98519.56;;;15.57;94.43
46412;BME280;32113;42.012;24.870;2023-05-18T03:07:49;98512.81;;;15.53;93.57
46412;BME280;32113;42.012;24.870;2023-05-18T03:10:14;98514.50;;;15.32;93.12
46412;BME280;32113;42.012;24.870;2023-05-18T03:12:40;98523.56;;;15.20;93.97
46412;BME280;32113;42.012;24.870;2023-05-18T03:15:05;98526.38;;;15.14;93.55
46412;BME280;32113;42.012;24.870;2023-05-18T03:17:30;98533.28;;;15.13;93.55
46412;BME280;32113;42.012;24.870;2023-05-18T03:19:56;98529.31;;;15.04;93.74
46412;BME280;32113;42.012;24.870;2023-05-18T03:22:21;98532.22;;;14.95;94.42
46412;BME280;32113;42.012;24.870;2023-05-18T03:24:46;98531.00;;;14.81;95.16
46412;BME280;32113;42.012;24.870;2023-05-18T03:27:15;98533.53;;;14.83;96.43
46412;BME280;32113;42.012;24.870;2023-05-18T03:29:42;98526.25;;;14.93;95.10
46412;BME280;32113;42.012;24.870;2023-05-18T03:32:07;98526.69;;;14.82;94.53
46412;BME280;32113;42.012;24.870;2023-05-18T03:34:33;98520.97;;;14.72;95.19
46412;BME280;32113;42.012;24.870;2023-05-18T03:36:59;98527.03;;;14.71;94.91
46412;BME280;32113;42.012;24.870;2023-05-18T03:39:24;98512.19;;;14.78;95.29
46412;BME280;32113;42.012;24.870;2023-05-18T03:41:49;98525.72;;;14.59;96.37
46412;BME280;32113;42.012;24.870;2023-05-18T03:44:14;98523.88;;;14.63;96.26
46412;BME280;32113;42.012;24.870;2023-05-18T03:46:40;98537.09;;;14.53;96.75
46412;BME280;32113;42.012;24.870;2023-05-18T03:49:05;98542.00;;;14.61;97.31
46412;BME280;32113;42.012;24.870;2023-05-18T03:51:32;98546.09;;;14.67;97.23
46412;BME280;32113;42.012;24.870;2023-05-18T03:53:57;98543.47;;;14.68;96.79
46412;BME280;32113;42.012;24.870;2023-05-18T03:56:22;98536.09;;;14.83;96.16
46412;BME280;32113;42.012;24.870;2023-05-18T03:58:48;98540.53;;;14.79;96.80
46412;BME280;32113;42.012;24.870;2023-05-18T04:01:15;98540.53;;;14.79;95.96
46412;BME280;32113;42.012;24.870;2023-05-18T04:03:42;98547.22;;;14.85;96.26
46412;BME280;32113;42.012;24.870;2023-05-18T04:06:08;98548.13;;;14.84;96.88
46412;BME280;32113;42.012;24.870;2023-05-18T04:08:35;98550.41;;;14.92;96.06
46412;BME280;32113;42.012;24.870;2023-05-18T04:11:00;98547.97;;;14.89;96.57
46412;BME280;32113;42.012;24.870;2023-05-18T04:13:26;98559.22;;;14.86;97.11
46412;BME280;32113;42.012;24.870;2023-05-18T04:15:51;98559.69;;;14.97;97.02
46412;BME280;32113;42.012;24.870;2023-05-18T04:18:16;98570.75;;;15.01;96.02
46412;BME280;32113;42.012;24.870;2023-05-18T04:20:42;98572.41;;;15.02;96.70
46412;BME280;32113;42.012;24.870;2023-05-18T04:23:10;98562.72;;;15.09;96.03
46412;BME280;32113;42.012;24.870;2023-05-18T04:25:35;98571.88;;;15.18;95.17
46412;BME280;32113;42.012;24.870;2023-05-18T04:28:03;98561.53;;;15.18;94.60
46412;BME280;32113;42.012;24.870;2023-05-18T04:30:28;98573.47;;;15.22;94.90
46412;BME280;32113;42.012;24.870;2023-05-18T04:32:54;98573.22;;;15.28;93.76
46412;BME280;32113;42.012;24.870;2023-05-18T04:35:22;98575.91;;;15.25;94.10
46412;BME280;32113;42.012;24.870;2023-05-18T04:37:48;98577.81;;;15.20;93.86
46412;BME280;32113;42.012;24.870;2023-05-18T04:40:14;98576.66;;;15.29;94.58
46412;BME280;32113;42.012;24.870;2023-05-18T04:42:41;98574.75;;;15.34;94.21
46412;BME280;32113;42.012;24.870;2023-05-18T04:45:15;98578.66;;;15.44;93.96
46412;BME280;32113;42.012;24.870;2023-05-18T04:47:42;98575.97;;;15.47;93.66
46412;BME280;32113;42.012;24.870;2023-05-18T04:50:10;98583.59;;;15.50;93.97
46412;BME280;32113;42.012;24.870;2023-05-18T04:52:35;98578.00;;;15.39;93.91
46412;BME280;32113;42.012;24.870;2023-05-18T04:55:01;98581.19;;;15.46;94.71
46412;BME280;32113;42.012;24.870;2023-05-18T04:57:26;98587.13;;;15.48;93.90
46412;BME280;32113;42.012;24.870;2023-05-18T04:59:52;98591.28;;;15.52;94.58
46412;BME280;32113;42.012;24.870;2023-05-18T05:02:17;98591.38;;;15.49;95.34
46412;BME280;32113;42.012;24.870;2023-05-18T05:04:42;98600.84;;;15.50;95.61
46412;BME280;32113;42.012;24.870;2023-05-18T05:07:08;98597.53;;;15.46;95.10
46412;BME280;32113;42.012;24.870;2023-05-18T05:09:33;98601.88;;;15.46;96.46
46412;BME280;32113;42.012;24.870;2023-05-18T05:11:58;98604.44;;;15.46;96.91
46412;BME280;32113;42.012;24.870;2023-05-18T05:14:23;98605.84;;;15.55;97.38
46412;BME280;32113;42.012;24.870;2023-05-18T05:16:49;98608.19;;;15.61;97.02
46412;BME280;32113;42.012;24.870;2023-05-18T05:19:14;98609.75;;;15.65;97.85
46412;BME280;32113;42.012;24.870;2023-05-18T05:21:40;98602.59;;;15.72;97.13
46412;BME280;32113;42.012;24.870;2023-05-18T05:24:05;98607.91;;;15.69;98.17
46412;BME280;32113;42.012;24.870;2023-05-18T05:26:32;98608.06;;;15.64;99.09
46412;BME280;32113;42.012;24.870;2023-05-18T05:28:57;98613.34;;;15.61;99.54
46412;BME280;32113;42.012;24.870;2023-05-18T05:31:23;98620.84;;;15.69;99.26
46412;BME280;32113;42.012;24.870;2023-05-18T05:33:48;98628.25;;;15.78;98.35
46412;BME280;32113;42.012;24.870;2023-05-18T05:36:13;98631.72;;;15.77;98.42
46412;BME280;32113;42.012;24.870;2023-05-18T05:38:39;98628.72;;;15.88;98.12
46412;BME280;32113;42.012;24.870;2023-05-18T05:41:04;98627.66;;;15.94;98.41
46412;BME280;32113;42.012;24.870;2023-05-18T05:43:29;98631.25;;;15.89;99.00
46412;BME280;32113;42.012;24.870;2023-05-18T05:45:55;98638.03;;;15.94;99.42
46412;BME280;32113;42.012;24.870;2023-05-18T05:48:20;98641.38;;;15.96;99.70
46412;BME280;32113;42.012;24.870;2023-05-18T05:50:45;98643.13;;;15.95;99.92
46412;BME280;32113;42.012;24.870;2023-05-18T05:53:10;98646.66;;;15.93;100.00
46412;BME280;32113;42.012;24.870;2023-05-18T05:55:36;98647.47;;;15.95;100.00
46412;BME280;32113;42.012;24.870;2023-05-18T05:58:10;98651.94;;;15.89;100.00
46412;BME280;32113;42.012;24.870;2023-05-18T06:00:36;98650.91;;;15.95;100.00
46412;BME280;32113;42.012;24.870;2023-05-18T06:03:01;98658.59;;;15.97;100.00
46412;BME280;32113;42.012;24.870;2023-05-18T06:05:26;98668.75;;;16.01;100.00
46412;BME280;32113;42.012;24.870;2023-05-18T06:07:51;98661.56;;;16.10;100.00
46412;BME280;32113;42.012;24.870;2023-05-18T06:10:17;98662.38;;;16.10;99.15
46412;BME280;32113;42.012;24.870;2023-05-18T06:12:42;98667.03;;;16.02;99.76
46412;BME280;32113;42.012;24.870;2023-05-18T06:15:07;98677.25;;;16.05;100.00
46412;BME280;32113;42.012;24.870;2023-05-18T06:17:33;98678.16;;;16.04;100.00
46412;BME280;32113;42.012;24.870;2023-05-18T06:19:59;98684.94;;;16.07;100.00
46412;BME280;32113;42.012;24.870;2023-05-18T06:22:24;98681.59;;;16.05;100.00
46412;BME280;32113;42.012;24.870;2023-05-18T06:24:49;98689.97;;;16.11;100.00
46412;BME280;32113;42.012;24.870;2023-05-18T06:27:14;98689.88;;;16.13;97.81
46412;BME280;32113;42.012;24.870;2023-05-18T06:29:40;98691.38;;;15.96;98.36
46412;BME280;32113;42.012;24.870;2023-05-18T06:32:06;98695.59;;;15.99;98.72
46412;BME280;32113;42.012;24.870;2023-05-18T06:34:31;98696.44;;;15.99;98.95
46412;BME280;32113;42.012;24.870;2023-05-18T06:36:57;98703.13;;;16.05;99.48
46412;BME280;32113;42.012;24.870;2023-05-18T06:39:23;98701.19;;;16.10;99.59
46412;BME280;32113;42.012;24.870;2023-05-18T06:41:48;98710.22;;;16.22;99.15
46412;BME280;32113;42.012;24.870;2023-05-18T06:44:16;98705.44;;;16.35;98.52
46412;BME280;32113;42.012;24.870;2023-05-18T06:46:41;98706.78;;;16.44;97.21
46412;BME280;32113;42.012;24.870;2023-05-18T06:49:06;98713.59;;;16.47;96.51
46412;BME280;32113;42.012;24.870;2023-05-18T06:51:32;98713.47;;;16.50;96.85
46412;BME280;32113;42.012;24.870;2023-05-18T06:53:57;98725.41;;;16.54;97.65
46412;BME280;32113;42.012;24.870;2023-05-18T06:56:22;98729.47;;;16.60;97.91
46412;BME280;32113;42.012;24.870;2023-05-18T06:58:47;98729.03;;;16.71;97.28
46412;BME280;32113;42.012;24.870;2023-05-18T07:01:13;98735.66;;;16.78;96.35
46412;BME280;32113;42.012;24.870;2023-05-18T07:03:38;98734.88;;;16.76;96.81
46412;BME280;32113;42.012;24.870;2023-05-18T07:06:04;98734.75;;;16.79;97.78
46412;BME280;32113;42.012;24.870;2023-05-18T07:08:30;98734.56;;;16.84;98.20
46412;BME280;32113;42.012;24.870;2023-05-18T07:10:56;98736.91;;;16.90;97.35
46412;BME280;32113;42.012;24.870;2023-05-18T07:13:22;98743.88;;;16.88;97.71
46412;BME280;32113;42.012;24.870;2023-05-18T07:15:47;98742.69;;;16.97;96.81
46412;BME280;32113;42.012;24.870;2023-05-18T07:18:12;98746.84;;;17.01;96.19
46412;BME280;32113;42.012;24.870;2023-05-18T07:20:38;98750.88;;;17.08;95.67
46412;BME280;32113;42.012;24.870;2023-05-18T07:23:03;98753.97;;;17.16;94.36
46412;BME280;32113;42.012;24.870;2023-05-18T07:25:28;98756.38;;;17.21;94.37
46412;BME280;32113;42.012;24.870;2023-05-18T07:27:54;98751.69;;;17.29;93.48
46412;BME280;32113;42.012;24.870;2023-05-18T07:30:19;98754.94;;;17.34;92.78
46412;BME280;32113;42.012;24.870;2023-05-18T07:32:45;98755.50;;;17.41;91.65
46412;BME280;32113;42.012;24.870;2023-05-18T07:35:10;98755.34;;;17.46;92.06
46412;BME280;32113;42.012;24.870;2023-05-18T07:37:36;98759.47;;;17.50;92.52
46412;BME280;32113;42.012;24.870;2023-05-18T07:40:02;98765.31;;;17.55;89.87
46412;BME280;32113;42.012;24.870;2023-05-18T07:42:28;98767.03;;;17.55;85.32
46412;BME280;32113;42.012;24.870;2023-05-18T07:44:53;98761.50;;;17.43;88.38
46412;BME280;32113;42.012;24.870;2023-05-18T07:47:19;98751.53;;;17.34;86.97
46412;BME280;32113;42.012;24.870;2023-05-18T07:49:45;98749.50;;;17.20;82.55
46412;BME280;32113;42.012;24.870;2023-05-18T07:52:11;98753.66;;;17.24;84.02
46412;BME280;32113;42.012;24.870;2023-05-18T07:54:36;98752.81;;;17.24;85.35
46412;BME280;32113;42.012;24.870;2023-05-18T07:57:01;98753.72;;;17.23;85.09
46412;BME280;32113;42.012;24.870;2023-05-18T07:59:28;98753.19;;;17.14;83.34
46412;BME280;32113;42.012;24.870;2023-05-18T08:01:53;98757.41;;;17.17;85.67
46412;BME280;32113;42.012;24.870;2023-05-18T08:04:18;98758.72;;;17.27;85.68
46412;BME280;32113;42.012;24.870;2023-05-18T08:06:44;98771.47;;;17.32;87.39
46412;BME280;32113;42.012;24.870;2023-05-18T08:09:09;98772.75;;;17.42;85.89
46412;BME280;32113;42.012;24.870;2023-05-18T08:11:34;98779.88;;;17.37;85.54
46412;BME280;32113;42.012;24.870;2023-05-18T08:14:00;98775.94;;;17.28;84.33
46412;BME280;32113;42.012;24.870;2023-05-18T08:16:25;98784.38;;;17.33;83.64
46412;BME280;32113;42.012;24.870;2023-05-18T08:18:50;98786.13;;;17.33;83.69
46412;BME280;32113;42.012;24.870;2023-05-18T08:21:16;98783.41;;;17.36;84.55
46412;BME280;32113;42.012;24.870;2023-05-18T08:23:41;98791.63;;;17.25;80.88
46412;BME280;32113;42.012;24.870;2023-05-18T08:26:06;98796.81;;;17.25;82.78
46412;BME280;32113;42.012;24.870;2023-05-18T08:28:32;98799.22;;;17.30;84.15
46412;BME280;32113;42.012;24.870;2023-05-18T08:30:58;98801.22;;;17.23;86.05
46412;BME280;32113;42.012;24.870;2023-05-18T08:33:23;98793.84;;;17.34;87.65
46412;BME280;32113;42.012;24.870;2023-05-18T08:35:49;98795.59;;;17.34;83.05
46412;BME280;32113;42.012;24.870;2023-05-18T08:38:15;98796.75;;;17.48;84.10
46412;BME280;32113;42.012;24.870;2023-05-18T08:40:49;98800.44;;;17.63;81.63
46412;BME280;32113;42.012;24.870;2023-05-18T08:43:20;98799.09;;;17.54;83.39
46412;BME280;32113;42.012;24.870;2023-05-18T08:45:47;98803.88;;;17.63;84.58
46412;BME280;32113;42.012;24.870;2023-05-18T08:48:16;98811.66;;;17.42;86.97
46412;BME280;32113;42.012;24.870;2023-05-18T08:50:41;98821.72;;;17.50;87.08
46412;BME280;32113;42.012;24.870;2023-05-18T08:53:08;98823.53;;;17.48;86.42
46412;BME280;32113;42.012;24.870;2023-05-18T08:55:34;98824.69;;;17.62;86.36
46412;BME280;32113;42.012;24.870;2023-05-18T08:58:01;98831.31;;;17.69;86.29
46412;BME280;32113;42.012;24.870;2023-05-18T09:00:26;98831.72;;;17.79;83.29
46412;BME280;32113;42.012;24.870;2023-05-18T09:02:52;98826.41;;;17.82;83.40
46412;BME280;32113;42.012;24.870;2023-05-18T09:05:17;98832.59;;;17.58;81.31
46412;BME280;32113;42.012;24.870;2023-05-18T09:07:44;98835.97;;;17.60;82.14
46412;BME280;32113;42.012;24.870;2023-05-18T09:10:10;98832.94;;;17.71;78.88
46412;BME280;32113;42.012;24.870;2023-05-18T09:12:36;98834.22;;;17.82;74.84
46412;BME280;32113;42.012;24.870;2023-05-18T09:15:02;98839.59;;;17.77;77.02
46412;BME280;32113;42.012;24.870;2023-05-18T09:17:28;98839.97;;;17.89;78.38
46412;BME280;32113;42.012;24.870;2023-05-18T09:19:53;98847.06;;;18.04;78.99
46412;BME280;32113;42.012;24.870;2023-05-18T09:22:18;98842.75;;;18.24;76.24
46412;BME280;32113;42.012;24.870;2023-05-18T09:24:44;98849.88;;;18.40;77.80
46412;BME280;32113;42.012;24.870;2023-05-18T09:27:09;98852.38;;;18.60;78.08
46412;BME280;32113;42.012;24.870;2023-05-18T09:29:35;98846.38;;;18.77;78.99
46412;BME280;32113;42.012;24.870;2023-05-18T09:32:03;98841.34;;;18.92;66.99
46412;BME280;32113;42.012;24.870;2023-05-18T09:34:40;98847.72;;;19.04;66.08
46412;BME280;32113;42.012;24.870;2023-05-18T09:37:05;98850.38;;;19.22;67.33
46412;BME280;32113;42.012;24.870;2023-05-18T09:39:30;98852.72;;;19.44;65.01
46412;BME280;32113;42.012;24.870;2023-05-18T09:41:56;98854.41;;;19.63;64.20
46412;BME280;32113;42.012;24.870;2023-05-18T09:44:34;98858.59;;;19.83;59.37
46412;BME280;32113;42.012;24.870;2023-05-18T09:46:59;98848.69;;;19.90;55.93
46412;BME280;32113;42.012;24.870;2023-05-18T09:49:25;98857.97;;;19.95;55.46
46412;BME280;32113;42.012;24.870;2023-05-18T09:51:52;98854.06;;;20.04;55.32
46412;BME280;32113;42.012;24.870;2023-05-18T09:54:18;98855.09;;;20.18;57.31
46412;BME280;32113;42.012;24.870;2023-05-18T09:56:43;98860.63;;;20.28;54.79
46412;BME280;32113;42.012;24.870;2023-05-18T10:01:34;98876.03;;;20.32;54.06
46412;BME280;32113;42.012;24.870;2023-05-18T10:04:02;98874.09;;;20.36;55.29
46412;BME280;32113;42.012;24.870;2023-05-18T10:06:29;98873.78;;;20.42;53.99
46412;BME280;32113;42.012;24.870;2023-05-18T10:08:56;98865.25;;;20.22;47.63
46412;BME280;32113;42.012;24.870;2023-05-18T10:11:21;98876.31;;;20.10;48.41
46412;BME280;32113;42.012;24.870;2023-05-18T10:13:50;98879.59;;;20.14;50.41
46412;BME280;32113;42.012;24.870;2023-05-18T10:16:17;98875.84;;;20.19;51.82
46412;BME280;32113;42.012;24.870;2023-05-18T10:18:42;98877.25;;;20.25;48.60
46412;BME280;32113;42.012;24.870;2023-05-18T10:21:09;98880.03;;;20.22;48.76
46412;BME280;32113;42.012;24.870;2023-05-18T10:23:36;98881.47;;;20.28;51.97
46412;BME280;32113;42.012;24.870;2023-05-18T10:26:05;98882.09;;;20.33;50.98
46412;BME280;32113;42.012;24.870;2023-05-18T10:28:45;98874.94;;;20.37;49.07
46412;BME280;32113;42.012;24.870;2023-05-18T10:31:14;98869.81;;;20.35;49.91
46412;BME280;32113;42.012;24.870;2023-05-18T10:33:39;98881.47;;;20.44;48.97
46412;BME280;32113;42.012;24.870;2023-05-18T10:36:05;98881.41;;;20.45;51.90
46412;BME280;32113;42.012;24.870;2023-05-18T10:38:32;98875.25;;;20.46;49.12
46412;BME280;32113;42.012;24.870;2023-05-18T10:40:58;98874.16;;;20.51;49.71
46412;BME280;32113;42.012;24.870;2023-05-18T10:43:27;98873.94;;;20.55;49.29
46412;BME280;32113;42.012;24.870;2023-05-18T10:45:53;98877.38;;;20.56;48.88
46412;BME280;32113;42.012;24.870;2023-05-18T10:48:19;98870.66;;;20.52;49.77
46412;BME280;32113;42.012;24.870;2023-05-18T10:50:46;98879.97;;;20.56;48.81
46412;BME280;32113;42.012;24.870;2023-05-18T10:53:12;98887.63;;;20.59;47.42
46412;BME280;32113;42.012;24.870;2023-05-18T10:55:38;98886.31;;;20.52;48.38
46412;BME280;32113;42.012;24.870;2023-05-18T10:58:06;98894.19;;;20.50;48.46
46412;BME280;32113;42.012;24.870;2023-05-18T11:00:34;98886.88;;;20.41;49.87
46412;BME280;32113;42.012;24.870;2023-05-18T11:03:00;98891.22;;;20.40;51.58
46412;BME280;32113;42.012;24.870;2023-05-18T11:05:26;98885.09;;;20.41;52.91
46412;BME280;32113;42.012;24.870;2023-05-18T11:07:58;98885.00;;;20.43;51.85
46412;BME280;32113;42.012;24.870;2023-05-18T11:10:31;98885.00;;;20.43;50.07
46412;BME280;32113;42.012;24.870;2023-05-18T11:12:59;98886.09;;;20.39;49.79
46412;BME280;32113;42.012;24.870;2023-05-18T11:15:48;98880.81;;;20.40;50.51
46412;BME280;32113;42.012;24.870;2023-05-18T11:18:13;98884.06;;;20.28;51.08
46412;BME280;32113;42.012;24.870;2023-05-18T11:20:38;98882.91;;;20.33;50.48
46412;BME280;32113;42.012;24.870;2023-05-18T11:23:04;98886.50;;;20.31;50.76
46412;BME280;32113;42.012;24.870;2023-05-18T11:28:05;98881.47;;;20.28;51.93
46412;BME280;32113;42.012;24.870;2023-05-18T11:33:09;98891.41;;;20.21;51.80
46412;BME280;32113;42.012;24.870;2023-05-18T11:38:19;98890.09;;;20.12;52.79
46412;BME280;32113;42.012;24.870;2023-05-18T11:40:48;98897.22;;;20.08;53.32
46412;BME280;32113;42.012;24.870;2023-05-18T11:43:21;98906.19;;;20.03;53.65
46412;BME280;32113;42.012;24.870;2023-05-18T11:45:53;98903.53;;;20.04;54.86
46412;BME280;32113;42.012;24.870;2023-05-18T11:48:20;98908.97;;;20.00;54.60
46412;BME280;32113;42.012;24.870;2023-05-18T11:50:45;98913.41;;;19.98;54.51
46412;BME280;32113;42.012;24.870;2023-05-18T11:53:13;98922.19;;;19.95;53.64
46412;BME280;32113;42.012;24.870;2023-05-18T11:55:39;98911.03;;;19.93;55.27
46412;BME280;32113;42.012;24.870;2023-05-18T11:58:05;98917.00;;;19.95;55.24
46412;BME280;32113;42.012;24.870;2023-05-18T12:00:31;98915.47;;;19.91;54.35
46412;BME280;32113;42.012;24.870;2023-05-18T12:02:56;98918.13;;;19.89;54.10
46412;BME280;32113;42.012;24.870;2023-05-18T12:05:24;98922.59;;;19.87;54.96
46412;BME280;32113;42.012;24.870;2023-05-18T12:07:54;98917.38;;;19.87;55.30
46412;BME280;32113;42.012;24.870;2023-05-18T12:10:20;98917.38;;;19.87;54.78
46412;BME280;32113;42.012;24.870;2023-05-18T12:12:50;98916.78;;;19.82;55.02
46412;BME280;32113;42.012;24.870;2023-05-18T12:15:20;98915.09;;;19.81;56.14
46412;BME280;32113;42.012;24.870;2023-05-18T12:17:46;98917.72;;;19.81;56.06
46412;BME280;32113;42.012;24.870;2023-05-18T12:20:12;98922.72;;;19.84;55.60
46412;BME280;32113;42.012;24.870;2023-05-18T12:22:42;98927.78;;;19.87;56.08
46412;BME280;32113;42.012;24.870;2023-05-18T12:25:07;98927.72;;;19.89;54.27
46412;BME280;32113;42.012;24.870;2023-05-18T12:27:39;98927.78;;;19.87;53.94
46412;BME280;32113;42.012;24.870;2023-05-18T12:30:27;98922.53;;;19.89;53.09
46412;BME280;32113;42.012;24.870;2023-05-18T12:32:59;98930.00;;;19.95;53.72
46412;BME280;32113;42.012;24.870;2023-05-18T12:35:25;98930.56;;;20.02;54.21
46412;BME280;32113;42.012;24.870;2023-05-18T12:37:51;98932.84;;;20.08;52.14
46412;BME280;32113;42.012;24.870;2023-05-18T12:40:20;98929.34;;;20.09;51.53
46412;BME280;32113;42.012;24.870;2023-05-18T12:45:17;98935.44;;;20.08;53.49
46412;BME280;32113;42.012;24.870;2023-05-18T12:47:43;98930.16;;;20.09;54.05
46412;BME280;32113;42.012;24.870;2023-05-18T12:50:08;98939.16;;;20.20;52.40
46412;BME280;32113;42.012;24.870;2023-05-18T12:52:34;98938.34;;;20.19;53.67
46412;BME280;32113;42.012;24.870;2023-05-18T12:55:00;98932.13;;;20.22;53.50
46412;BME280;32113;42.012;24.870;2023-05-18T12:57:27;98932.97;;;20.22;53.72
46412;BME280;32113;42.012;24.870;2023-05-18T12:59:57;98927.84;;;20.21;54.42
46412;BME280;32113;42.012;24.870;2023-05-18T13:05:00;98931.53;;;20.17;53.94
46412;BME280;32113;42.012;24.870;2023-05-18T13:07:25;98942.97;;;20.14;56.06
46412;BME280;32113;42.012;24.870;2023-05-18T13:09:50;98946.56;;;20.12;57.18
46412;BME280;32113;42.012;24.870;2023-05-18T13:12:16;98946.88;;;20.05;58.07